Time;durP1;ratioP1;P1;durP2;ratioP2;P2;SDS_P1;SDS_P2;PMS_P1;PMS_P2;Temp;Humidity;BMP_temperature;BMP_pressure;BME280_temperature;BME280_humidity;BME280_pressure;Samples;Min_cycle;Max_cycle;Signal;HPM_P1;HPM_P2
2021/09/25 00:00:36;;;;;;;3.22;1.48;;;15.30;99.90;;;;;;6087593;23;20007;-91
2021/09/25 00:03:04;;;;;;;2.63;1.35;;;15.30;99.90;;;;;;6087614;23;20007;-92
2021/09/25 00:05:34;;;;;;;2.17;1.00;;;15.40;99.90;;;;;;6087403;23;20018;-91
2021/09/25 00:08:00;;;;;;;2.60;1.30;;;15.40;99.90;;;;;;6087152;23;20041;-92
2021/09/25 00:10:27;;;;;;;2.75;1.00;;;15.30;99.90;;;;;;6087607;23;20034;-91
2021/09/25 00:12:54;;;;;;;2.00;0.98;;;15.30;99.90;;;;;;6087323;23;20006;-91
2021/09/25 00:15:23;;;;;;;1.80;0.80;;;15.30;99.90;;;;;;6082052;23;20078;-90
2021/09/25 00:17:48;;;;;;;2.38;1.00;;;15.30;99.90;;;;;;6109407;23;20006;-92
2021/09/25 00:20:16;;;;;;;2.47;1.40;;;15.40;99.90;;;;;;6087067;23;20039;-92
2021/09/25 00:22:42;;;;;;;2.55;1.50;;;15.40;99.90;;;;;;6087047;23;20022;-92
2021/09/25 00:25:08;;;;;;;2.53;1.25;;;15.40;99.90;;;;;;6081945;23;20018;-92
2021/09/25 00:27:35;;;;;;;2.58;1.10;;;15.40;99.90;;;;;;6083201;23;20522;-90
2021/09/25 00:30:05;;;;;;;2.80;1.38;;;15.40;99.90;;;;;;6110445;23;20022;-91
2021/09/25 00:32:31;;;;;;;3.08;1.60;;;15.40;99.90;;;;;;6086944;23;20013;-91
2021/09/25 00:35:00;;;;;;;4.50;2.10;;;15.50;99.90;;;;;;6086990;23;20030;-91
2021/09/25 00:37:26;;;;;;;4.87;2.00;;;15.50;99.90;;;;;;6086970;23;20034;-92
2021/09/25 00:39:51;;;;;;;2.78;1.45;;;15.50;99.90;;;;;;6087163;23;20006;-92
2021/09/25 00:42:17;;;;;;;3.90;1.85;;;15.50;99.90;;;;;;6086636;23;20010;-90
2021/09/25 00:44:43;;;;;;;4.30;1.73;;;15.50;99.90;;;;;;6086937;23;20018;-94
2021/09/25 00:47:09;;;;;;;3.30;1.75;;;15.50;99.90;;;;;;6086296;23;20018;-93
2021/09/25 00:49:36;;;;;;;3.25;1.77;;;15.50;99.90;;;;;;6086989;23;20062;-92
2021/09/25 00:52:02;;;;;;;3.13;1.95;;;15.50;99.90;;;;;;6086908;23;20006;-93
2021/09/25 00:54:28;;;;;;;4.05;1.70;;;15.60;99.90;;;;;;6086386;23;20010;-92
2021/09/25 00:56:54;;;;;;;3.05;1.30;;;15.60;99.90;;;;;;6086137;23;20007;-93
2021/09/25 00:59:20;;;;;;;4.30;1.85;;;15.60;99.90;;;;;;6086870;23;20045;-92
2021/09/25 01:01:46;;;;;;;5.20;2.00;;;15.60;99.90;;;;;;6086285;23;20018;-93
2021/09/25 01:04:12;;;;;;;4.13;1.67;;;15.60;99.90;;;;;;6086883;23;20061;-93
2021/09/25 01:06:38;;;;;;;3.60;2.10;;;15.60;99.90;;;;;;6086505;23;20006;-94
2021/09/25 01:09:04;;;;;;;3.38;1.73;;;15.60;99.90;;;;;;6086496;23;20023;-94
2021/09/25 01:11:32;;;;;;;3.70;2.40;;;15.50;99.90;;;;;;6086772;23;20017;-95
2021/09/25 01:13:58;;;;;;;4.47;2.47;;;15.60;99.90;;;;;;6086260;23;20030;-94
2021/09/25 01:16:24;;;;;;;5.95;2.25;;;15.60;99.90;;;;;;6086423;23;20037;-92
2021/09/25 01:18:51;;;;;;;6.80;2.35;;;15.60;99.90;;;;;;6086334;23;20014;-95
2021/09/25 01:21:18;;;;;;;6.90;3.25;;;15.60;99.90;;;;;;6086562;23;20006;-92
2021/09/25 01:23:45;;;;;;;4.05;2.65;;;15.60;99.90;;;;;;6086796;23;20011;-92
2021/09/25 01:26:11;;;;;;;4.80;1.48;;;15.60;99.90;;;;;;6087999;23;20014;-93
2021/09/25 01:28:39;;;;;;;4.53;2.63;;;15.60;99.90;;;;;;6110023;23;20041;-91
2021/09/25 01:31:07;;;;;;;4.43;2.47;;;15.60;99.90;;;;;;6086308;23;20006;-92
2021/09/25 01:33:38;;;;;;;4.72;1.98;;;15.60;99.90;;;;;;6086231;23;20044;-91
2021/09/25 01:36:08;;;;;;;4.55;2.67;;;15.60;99.90;;;;;;6086018;23;20017;-92
2021/09/25 01:38:33;;;;;;;;;;;15.60;99.90;;;;;;6086625;23;20030;-91
2021/09/25 01:40:59;;;;;;;5.28;2.42;;;15.60;99.90;;;;;;6086307;23;19905;-92
2021/09/25 01:43:25;;;;;;;3.95;1.92;;;15.60;99.90;;;;;;6085947;23;20010;-92
2021/09/25 01:49:04;;;;;;;4.20;2.47;;;15.60;99.90;;;;;;6094459;23;20076;-92
2021/09/25 01:51:31;;;;;;;5.72;2.78;;;15.60;99.90;;;;;;6082070;23;20093;-92
2021/09/25 01:53:58;;;;;;;5.38;2.30;;;15.60;99.90;;;;;;6081136;23;20084;-92
2021/09/25 01:56:24;;;;;;;4.65;2.50;;;15.60;99.90;;;;;;6099253;23;20003;-89
2021/09/25 01:58:50;;;;;;;4.85;2.55;;;15.60;99.90;;;;;;6073313;23;20014;-91
2021/09/25 02:01:16;;;;;;;4.65;2.88;;;15.60;99.90;;;;;;6085915;23;20017;-91
2021/09/25 02:03:42;;;;;;;6.30;3.60;;;15.60;99.90;;;;;;6085994;23;20014;-90
2021/09/25 02:06:12;;;;;;;5.60;3.13;;;15.60;99.90;;;;;;6085816;23;20097;-92
2021/09/25 02:08:39;;;;;;;3.72;2.38;;;15.60;99.90;;;;;;6085923;23;20014;-91
2021/09/25 02:11:06;;;;;;;4.47;2.50;;;15.60;99.90;;;;;;6086082;23;20305;-92
2021/09/25 02:13:32;;;;;;;4.55;1.88;;;15.60;99.90;;;;;;6085885;23;20048;-93
2021/09/25 02:15:58;;;;;;;4.45;2.33;;;15.60;99.90;;;;;;6085590;23;20014;-92
2021/09/25 02:18:24;;;;;;;5.47;2.83;;;15.60;99.90;;;;;;6109597;23;20037;-92
2021/09/25 02:20:50;;;;;;;5.97;2.85;;;15.60;99.90;;;;;;6085676;23;20614;-92
2021/09/25 02:23:16;;;;;;;4.43;2.30;;;15.60;99.90;;;;;;6085490;23;20058;-92
2021/09/25 02:25:41;;;;;;;5.97;2.72;;;15.60;99.90;;;;;;6085714;23;20031;-92
2021/09/25 02:28:07;;;;;;;6.35;2.92;;;15.60;99.90;;;;;;6085184;23;20010;-93
2021/09/25 02:30:33;;;;;;;5.22;2.83;;;15.60;99.90;;;;;;6086020;23;20018;-92
2021/09/25 02:32:59;;;;;;;5.32;2.25;;;15.60;99.90;;;;;;6104790;23;20011;-91
2021/09/25 02:35:25;;;;;;;7.43;3.22;;;15.60;99.90;;;;;;6068013;23;20034;-91
2021/09/25 02:37:52;;;;;;;6.40;2.85;;;15.60;99.90;;;;;;6085511;23;20006;-93
2021/09/25 02:40:19;;;;;;;7.18;3.55;;;15.60;99.90;;;;;;6080850;23;20014;-93
2021/09/25 02:42:45;;;;;;;4.63;2.47;;;15.60;99.90;;;;;;6108223;23;20010;-93
2021/09/25 02:45:12;;;;;;;7.40;3.40;;;15.60;99.90;;;;;;6084987;23;20014;-93
2021/09/25 02:47:39;;;;;;;7.25;3.60;;;15.60;99.90;;;;;;6085177;23;20003;-91
2021/09/25 02:50:10;;;;;;;6.22;3.05;;;15.60;99.90;;;;;;6085409;23;20097;-91
2021/09/25 02:52:38;;;;;;;5.88;3.20;;;15.60;99.90;;;;;;6109356;23;20344;-92
2021/09/25 02:55:05;;;;;;;6.18;3.00;;;15.60;99.90;;;;;;6099764;23;20010;-92
2021/09/25 02:57:39;;;;;;;4.60;2.45;;;15.60;99.90;;;;;;6057334;23;20014;-91
2021/09/25 03:00:17;;;;;;;5.97;2.88;;;15.60;99.90;;;;;;6085662;23;20009;-91
2021/09/25 03:02:44;;;;;;;5.20;2.22;;;15.60;99.90;;;;;;6083816;23;20067;-93
2021/09/25 03:05:10;;;;;;;5.60;3.38;;;15.60;99.90;;;;;;6085468;23;20006;-92
2021/09/25 03:07:36;;;;;;;7.15;3.70;;;15.60;99.90;;;;;;6085723;23;20011;-93
2021/09/25 03:10:03;;;;;;;7.32;4.15;;;15.60;99.90;;;;;;6085727;23;20025;-92
2021/09/25 03:12:29;;;;;;;7.07;3.47;;;15.60;99.90;;;;;;6080866;23;20015;-91
2021/09/25 03:14:58;;;;;;;6.93;3.58;;;15.50;99.90;;;;;;6085535;23;20010;-93
2021/09/25 03:17:24;;;;;;;7.30;4.68;;;15.60;99.90;;;;;;6085547;23;20006;-93
2021/09/25 03:19:50;;;;;;;8.70;4.80;;;15.60;99.90;;;;;;6085280;23;20002;-92
2021/09/25 03:22:16;;;;;;;6.45;3.08;;;15.50;99.90;;;;;;6080594;23;20381;-92
2021/09/25 03:24:43;;;;;;;5.90;3.17;;;15.50;99.90;;;;;;6109374;23;20034;-93
2021/09/25 03:27:09;;;;;;;4.95;2.50;;;15.60;99.90;;;;;;6085631;23;20030;-93
2021/09/25 03:29:48;;;;;;;9.25;3.58;;;15.60;99.90;;;;;;6085453;23;20023;-93
2021/09/25 03:32:16;;;;;;;5.82;2.70;;;15.60;99.90;;;;;;6085510;23;20002;-92
2021/09/25 03:34:42;;;;;;;4.63;2.85;;;15.60;99.90;;;;;;6085720;23;20010;-94
2021/09/25 03:37:07;;;;;;;7.13;3.28;;;15.50;99.90;;;;;;6085188;23;20011;-93
2021/09/25 03:39:33;;;;;;;6.85;3.00;;;15.50;99.90;;;;;;6085525;23;20027;-93
2021/09/25 03:42:08;;;;;;;5.40;2.97;;;15.50;99.90;;;;;;6085679;23;20018;-92
2021/09/25 03:44:55;;;;;;;5.13;2.50;;;15.50;99.90;;;;;;6084911;23;20006;-92
2021/09/25 03:47:28;;;;;;;5.20;2.95;;;15.60;99.90;;;;;;6050329;23;20051;-92
2021/09/25 03:49:56;;;;;;;8.52;3.53;;;15.50;99.90;;;;;;6026791;23;20053;-93
2021/09/25 03:52:25;;;;;;;7.15;3.60;;;15.60;99.90;;;;;;6003192;23;20012;-93
2021/09/25 03:54:50;;;;;;;7.57;4.38;;;15.50;99.90;;;;;;6026649;23;20019;-94
2021/09/25 03:57:18;;;;;;;6.28;3.35;;;15.60;99.90;;;;;;6026983;23;20017;-93
2021/09/25 03:59:44;;;;;;;6.57;3.33;;;15.60;99.90;;;;;;6028301;23;20068;-93
2021/09/25 04:02:18;;;;;;;6.00;3.63;;;15.60;99.90;;;;;;6028673;23;20015;-93
2021/09/25 04:04:43;;;;;;;7.85;3.60;;;15.60;99.90;;;;;;6028546;23;20045;-93
2021/09/25 04:07:09;;;;;;;7.20;3.45;;;15.60;99.90;;;;;;6028536;23;20011;-94
2021/09/25 04:09:35;;;;;;;7.28;3.58;;;15.60;99.90;;;;;;6028459;23;20015;-92
2021/09/25 04:12:01;;;;;;;7.82;3.65;;;15.60;99.90;;;;;;6028513;23;20010;-93
2021/09/25 04:14:27;;;;;;;9.52;4.65;;;15.50;99.90;;;;;;6028217;23;20021;-93
2021/09/25 04:16:54;;;;;;;7.53;4.00;;;15.60;99.90;;;;;;6004759;23;20067;-93
2021/09/25 04:19:20;;;;;;;7.07;2.92;;;15.50;99.90;;;;;;6028696;23;20015;-95
2021/09/25 04:21:46;;;;;;;7.43;3.38;;;15.60;99.90;;;;;;6028442;23;20007;-93
2021/09/25 04:24:12;;;;;;;6.00;3.50;;;15.60;99.90;;;;;;6048433;23;20043;-94
2021/09/25 04:26:38;;;;;;;7.70;3.40;;;15.50;99.90;;;;;;6080892;23;20007;-93
2021/09/25 04:29:04;;;;;;;5.00;2.85;;;15.60;99.90;;;;;;6086878;23;20392;-93
2021/09/25 04:31:34;;;;;;;6.30;3.42;;;15.50;99.90;;;;;;6086838;23;20022;-93
2021/09/25 04:34:00;;;;;;;6.72;3.10;;;15.60;99.90;;;;;;6086970;23;20011;-92
2021/09/25 04:36:54;;;;;;;6.68;3.50;;;15.60;99.90;;;;;;6086503;23;20003;-93
2021/09/25 04:39:24;;;;;;;6.55;3.13;;;15.60;99.90;;;;;;6086921;23;20100;-94
2021/09/25 04:41:51;;;;;;;7.00;3.63;;;15.50;99.90;;;;;;6086900;23;20214;-94
2021/09/25 04:44:37;;;;;;;5.28;3.28;;;15.50;99.90;;;;;;6086238;23;20034;-92
2021/09/25 04:47:02;;;;;;;6.70;3.88;;;15.50;99.90;;;;;;6051567;23;20019;-93
2021/09/25 04:49:28;;;;;;;7.40;3.47;;;15.40;99.90;;;;;;6027883;23;20151;-94
2021/09/25 04:51:54;;;;;;;6.90;3.53;;;15.40;99.90;;;;;;6028138;23;20118;-92
2021/09/25 04:54:20;;;;;;;8.50;4.60;;;15.40;99.90;;;;;;6027924;23;20051;-92
2021/09/25 04:56:55;;;;;;;5.70;3.33;;;15.40;99.90;;;;;;6028134;23;20012;-94
2021/09/25 04:59:24;;;;;;;8.48;4.13;;;15.40;99.90;;;;;;6005250;23;20040;-92
2021/09/25 05:01:53;;;;;;;6.88;3.95;;;15.40;99.90;;;;;;6027884;23;20004;-93
2021/09/25 05:04:18;;;;;;;5.47;2.63;;;15.30;99.90;;;;;;6027919;23;20015;-92
2021/09/25 05:07:05;;;;;;;4.88;3.17;;;15.40;99.90;;;;;;6027880;23;20381;-96
2021/09/25 05:10:12;;;;;;;6.57;2.67;;;15.40;99.90;;;;;;5995661;23;20019;-94
2021/09/25 05:12:38;;;;;;;5.65;2.30;;;15.40;99.90;;;;;;6018887;23;20102;-96
2021/09/25 05:53:20;;;;;;;4.63;2.58;;;15.40;99.90;;;;;;6085591;23;20030;-96
2021/09/25 05:55:46;;;;;;;6.60;3.08;;;15.50;99.90;;;;;;6062106;23;20015;-96
2021/09/25 05:58:14;;;;;;;6.57;3.15;;;15.40;99.90;;;;;;6063276;23;20031;-95
2021/09/25 06:00:40;;;;;;;5.75;3.28;;;15.40;99.90;;;;;;6061648;23;20016;-94
2021/09/25 06:03:07;;;;;;;5.68;3.20;;;15.40;99.90;;;;;;6066488;23;20022;-96
2021/09/25 06:05:52;;;;;;;4.95;2.72;;;15.40;99.90;;;;;;6066610;23;20010;-96
2021/09/25 06:08:49;;;;;;;7.22;2.90;;;15.40;99.90;;;;;;6064612;23;20015;-96
2021/09/25 06:11:15;;;;;;;8.45;3.53;;;15.40;99.90;;;;;;6093397;23;20019;-96
2021/09/25 06:13:41;;;;;;;6.13;3.83;;;15.40;99.90;;;;;;6067034;23;20138;-96
2021/09/25 06:16:34;;;;;;;5.30;3.03;;;15.40;99.90;;;;;;6090547;23;20045;-96
2021/09/25 06:19:02;;;;;;;6.03;2.95;;;15.50;99.90;;;;;;6065966;23;20017;-96
2021/09/25 06:21:49;;;;;;;4.90;2.40;;;15.50;99.90;;;;;;6068220;23;20030;-96
2021/09/25 06:24:17;;;;;;;5.05;2.92;;;15.50;99.90;;;;;;6067400;23;20010;-96
2021/09/25 06:26:48;;;;;;;4.15;2.53;;;15.50;99.90;;;;;;6087140;23;19991;-95
2021/09/25 06:29:14;;;;;;;6.85;2.78;;;15.50;99.90;;;;;;6067564;23;20042;-96
2021/09/25 06:32:04;;;;;;;4.18;2.28;;;15.50;99.90;;;;;;6091982;23;20030;-96
2021/09/25 06:34:49;;;;;;;3.90;1.92;;;15.60;99.90;;;;;;6067992;23;19999;-96
2021/09/25 06:37:31;;;;;;;4.10;2.17;;;15.60;99.90;;;;;;6022136;23;20011;-95
2021/09/25 06:40:32;;;;;;;6.82;2.35;;;15.70;99.90;;;;;;6073249;23;20022;-96
2021/09/25 06:43:03;;;;;;;4.28;1.83;;;15.70;99.90;;;;;;6094692;23;19995;-96
2021/09/25 06:45:43;;;;;;;6.32;2.72;;;15.70;99.90;;;;;;6092120;23;20007;-96
2021/09/25 06:48:10;;;;;;;5.47;1.88;;;15.70;99.90;;;;;;6069256;23;20070;-96
2021/09/25 06:50:37;;;;;;;4.40;1.83;;;15.70;99.90;;;;;;6068580;23;20023;-96
2021/09/25 06:53:03;;;;;;;3.85;1.42;;;15.70;99.90;;;;;;6069301;23;20002;-96
2021/09/25 06:55:35;;;;;;;4.65;2.45;;;15.80;99.90;;;;;;6067865;23;19999;-96
2021/09/25 06:58:30;;;;;;;4.70;2.55;;;15.80;99.90;;;;;;6021744;23;20010;-96
2021/09/25 07:01:00;;;;;;;4.78;2.83;;;15.80;99.90;;;;;;6092251;23;20007;-96
2021/09/25 07:03:30;;;;;;;4.47;2.47;;;15.80;99.90;;;;;;6087061;23;20021;-96
2021/09/25 07:06:01;;;;;;;5.07;3.00;;;15.80;99.90;;;;;;6062419;23;20018;-96
2021/09/25 07:08:32;;;;;;;5.00;2.85;;;15.80;99.90;;;;;;6066693;23;20019;-96
2021/09/25 07:10:58;;;;;;;5.95;2.78;;;15.90;99.90;;;;;;6064590;23;20047;-96
2021/09/25 07:13:24;;;;;;;4.82;2.55;;;15.90;99.90;;;;;;6038993;23;20015;-96
2021/09/25 07:15:53;;;;;;;5.30;2.72;;;15.90;99.90;;;;;;6089029;23;20030;-96
2021/09/25 07:18:26;;;;;;;5.97;3.00;;;15.90;99.90;;;;;;6066010;23;19995;-96
2021/09/25 07:20:52;;;;;;;6.68;3.22;;;15.90;99.90;;;;;;6020256;23;20019;-96
2021/09/25 07:23:19;;;;;;;5.47;2.70;;;16.00;99.90;;;;;;6066376;23;20011;-95
2021/09/25 07:25:47;;;;;;;6.45;2.47;;;16.00;99.90;;;;;;6018706;23;20034;-96
2021/09/25 07:28:16;;;;;;;5.68;3.10;;;16.10;99.90;;;;;;6041145;23;20015;-96
2021/09/25 07:30:50;;;;;;;5.55;3.83;;;16.10;99.90;;;;;;6089242;23;20018;-96
2021/09/25 07:33:17;;;;;;;5.10;3.72;;;16.10;99.90;;;;;;6040898;23;20019;-96
2021/09/25 07:35:46;;;;;;;7.05;3.42;;;16.20;99.90;;;;;;6088626;23;20010;-95
2021/09/25 07:38:12;;;;;;;4.13;2.45;;;16.20;99.90;;;;;;6092172;23;19991;-96
2021/09/25 07:40:38;;;;;;;5.18;2.35;;;16.30;99.90;;;;;;6066540;23;20001;-96
2021/09/25 07:43:05;;;;;;;6.43;3.03;;;16.30;99.90;;;;;;6091806;23;20007;-96
2021/09/25 07:45:35;;;;;;;7.65;3.22;;;16.30;99.90;;;;;;6065901;23;20079;-96
2021/09/25 07:48:01;;;;;;;6.10;2.83;;;16.30;99.90;;;;;;6086359;23;20035;-94
2021/09/25 07:50:28;;;;;;;7.13;3.25;;;16.40;99.90;;;;;;6087475;23;20017;-95
2021/09/25 07:52:56;;;;;;;6.40;3.17;;;16.50;99.90;;;;;;6063996;23;20010;-95
2021/09/25 07:55:23;;;;;;;6.60;3.47;;;16.50;99.90;;;;;;6086923;23;20022;-95
2021/09/25 07:57:55;;;;;;;4.68;2.95;;;16.50;99.90;;;;;;6093488;23;20007;-96
2021/09/25 08:00:27;;;;;;;7.53;4.55;;;16.50;99.90;;;;;;6088608;23;20006;-96
2021/09/25 08:02:52;;;;;;;6.15;3.65;;;16.60;99.90;;;;;;6111058;23;20063;-95
2021/09/25 08:05:19;;;;;;;5.20;2.47;;;16.60;99.90;;;;;;6086615;23;20006;-96
2021/09/25 08:07:45;;;;;;;4.80;2.38;;;16.60;99.90;;;;;;6087462;23;20045;-95
2021/09/25 08:10:13;;;;;;;3.67;1.75;;;16.50;99.90;;;;;;6087029;23;20021;-95
2021/09/25 08:12:40;;;;;;;4.05;1.77;;;16.60;99.90;;;;;;6111272;23;20010;-95
2021/09/25 08:15:08;;;;;;;7.15;2.50;;;16.70;99.90;;;;;;6109819;23;20002;-96
2021/09/25 08:17:34;;;;;;;3.88;2.10;;;16.70;99.90;;;;;;6086391;23;20010;-94
2021/09/25 08:20:00;;;;;;;5.93;2.97;;;16.70;99.90;;;;;;6108272;23;20011;-95
2021/09/25 08:22:28;;;;;;;8.40;2.97;;;16.70;99.90;;;;;;6109098;23;20014;-95
2021/09/25 08:24:54;;;;;;;4.97;2.67;;;16.60;99.90;;;;;;6086767;23;20039;-94
2021/09/25 08:27:20;;;;;;;4.25;2.25;;;16.70;99.90;;;;;;6061341;23;20010;-92
2021/09/25 08:29:45;;;;;;;6.00;3.53;;;16.80;99.90;;;;;;6086002;23;20050;-95
2021/09/25 08:32:11;;;;;;;5.28;2.38;;;16.70;99.90;;;;;;6086013;23;20007;-92
2021/09/25 08:34:37;;;;;;;5.30;2.90;;;16.70;99.90;;;;;;6062225;23;20034;-94
2021/09/25 08:37:05;;;;;;;3.83;1.90;;;16.80;99.90;;;;;;6062502;23;20006;-92
2021/09/25 08:39:31;;;;;;;4.05;2.28;;;16.90;99.90;;;;;;6061797;23;20077;-94
2021/09/25 08:41:58;;;;;;;5.00;2.40;;;16.80;99.90;;;;;;6109764;23;20400;-95
2021/09/25 08:44:48;;;;;;;5.00;2.53;;;16.90;99.90;;;;;;6109825;23;20007;-92
2021/09/25 08:47:16;;;;;;;4.95;3.00;;;16.90;99.90;;;;;;6056055;23;20034;-93
2021/09/25 08:49:42;;;;;;;6.20;3.65;;;16.90;99.90;;;;;;6056091;23;20021;-93
2021/09/25 08:52:08;;;;;;;6.30;3.38;;;16.90;99.90;;;;;;6056383;23;20034;-94
2021/09/25 08:54:34;;;;;;;5.70;3.38;;;17.00;99.90;;;;;;6056057;23;20014;-94
2021/09/25 09:00:42;;;;;;;5.65;2.67;;;17.10;99.90;;;;;;6047635;23;20131;-95
2021/09/25 09:03:46;;;;;;;5.63;3.08;;;17.10;99.90;;;;;;6052670;23;20011;-93
2021/09/25 09:06:27;;;;;;;8.68;3.13;;;17.10;99.90;;;;;;6052427;23;20008;-96
2021/09/25 09:08:55;;;;;;;7.40;3.35;;;17.00;99.90;;;;;;6028806;23;20015;-94
2021/09/25 09:11:23;;;;;;;5.47;3.15;;;17.20;99.90;;;;;;6028667;23;20007;-94
2021/09/25 09:13:52;;;;;;;5.05;2.88;;;17.20;99.90;;;;;;6028646;23;20021;-94
2021/09/25 09:16:20;;;;;;;6.57;3.97;;;17.10;99.90;;;;;;6052500;23;20448;-94
2021/09/25 09:18:49;;;;;;;9.18;4.25;;;17.10;99.90;;;;;;6029457;23;20007;-93
2021/09/25 09:21:18;;;;;;;6.57;3.58;;;17.10;99.90;;;;;;6030206;23;20015;-95
2021/09/25 09:24:02;;;;;;;7.25;3.45;;;17.10;99.90;;;;;;6028956;23;20428;-94
2021/09/25 09:26:39;;;;;;;8.90;4.40;;;17.20;99.90;;;;;;6027098;23;20038;-94
2021/09/25 09:29:09;;;;;;;6.95;3.58;;;17.30;99.90;;;;;;6028626;23;20023;-94
2021/09/25 09:31:36;;;;;;;6.68;3.90;;;17.30;99.90;;;;;;6028425;23;20014;-95
2021/09/25 09:34:05;;;;;;;5.85;3.85;;;17.20;99.90;;;;;;6028242;23;20012;-94
2021/09/25 09:36:42;;;;;;;13.88;4.47;;;17.30;99.90;;;;;;6028622;23;20094;-93
2021/09/25 09:39:19;;;;;;;8.70;4.22;;;17.40;99.90;;;;;;6028468;23;20026;-94
2021/09/25 09:41:53;;;;;;;6.13;3.60;;;17.40;99.90;;;;;;6028217;23;20007;-92
2021/09/25 09:44:39;;;;;;;10.40;4.70;;;17.40;99.90;;;;;;6051656;23;20038;-94
2021/09/25 09:47:08;;;;;;;8.88;4.80;;;17.40;99.90;;;;;;5993899;24;20031;-94
2021/09/25 09:49:37;;;;;;;7.72;4.43;;;17.30;99.90;;;;;;5994112;24;20103;-95
2021/09/25 09:52:06;;;;;;;6.82;4.30;;;17.40;99.90;;;;;;5993568;24;20194;-95
2021/09/25 09:54:40;;;;;;;8.32;3.47;;;17.40;99.90;;;;;;5993299;24;20015;-94
2021/09/25 09:57:11;;;;;;;6.78;4.28;;;17.50;99.90;;;;;;5998106;23;20008;-94
2021/09/25 09:59:38;;;;;;;8.95;5.45;;;17.50;99.90;;;;;;6022017;23;20040;-93
2021/09/25 10:02:05;;;;;;;10.00;4.90;;;17.50;99.90;;;;;;6022002;23;20008;-94
2021/09/25 10:04:31;;;;;;;8.02;4.10;;;17.60;99.90;;;;;;6021949;23;20012;-93
2021/09/25 10:06:57;;;;;;;9.68;5.07;;;17.70;99.90;;;;;;6021683;23;20012;-92
2021/09/25 10:09:25;;;;;;;9.32;4.90;;;17.70;99.90;;;;;;6021514;23;20131;-94
2021/09/25 10:11:56;;;;;;;7.80;4.70;;;17.80;99.90;;;;;;6021677;23;20030;-93
2021/09/25 10:14:27;;;;;;;11.35;7.55;;;17.80;99.90;;;;;;6021369;23;20067;-95
2021/09/25 10:16:55;;;;;;;12.52;7.03;;;17.70;99.90;;;;;;6021885;23;20007;-93
2021/09/25 10:19:52;;;;;;;10.10;6.68;;;17.80;99.90;;;;;;6021816;23;20008;-93
2021/09/25 10:22:24;;;;;;;7.60;4.78;;;17.90;99.90;;;;;;6021533;23;20031;-94
2021/09/25 10:25:12;;;;;;;8.13;5.40;;;18.00;99.90;;;;;;6044854;23;20067;-95
2021/09/25 10:31:25;;;;;;;10.55;5.72;;;17.90;99.90;;;;;;5965688;24;20054;-94
2021/09/25 10:34:03;;;;;;;9.65;6.10;;;18.00;99.90;;;;;;5965576;24;20076;-94
2021/09/25 10:36:47;;;;;;;8.73;6.10;;;18.10;99.90;;;;;;5965717;24;20013;-93
2021/09/25 10:39:35;;;;;;;12.50;6.32;;;18.10;99.90;;;;;;5942345;24;20051;-94
2021/09/25 10:42:06;;;;;;;7.75;4.78;;;18.00;99.90;;;;;;5942362;24;20016;-93
2021/09/25 10:48:23;;;;;;;8.50;4.40;;;18.30;99.90;;;;;;5883562;24;20024;-94
2021/09/25 10:51:05;;;;;;;8.52;5.20;;;18.40;99.90;;;;;;5883863;24;20041;-95
2021/09/25 10:53:42;;;;;;;10.45;5.85;;;18.50;99.90;;;;;;5883193;24;20050;-92
2021/09/25 10:56:17;;;;;;;9.68;5.70;;;18.30;99.90;;;;;;5883561;24;20045;-92
2021/09/25 10:58:56;;;;;;;10.85;6.63;;;18.50;99.90;;;;;;5883908;24;20018;-94
2021/09/25 11:01:41;;;;;;;8.80;5.32;;;18.40;99.90;;;;;;5876367;24;20082;-94
2021/09/25 11:04:12;;;;;;;8.23;5.47;;;18.60;99.90;;;;;;5916010;24;20010;-93
2021/09/25 11:06:45;;;;;;;9.55;5.45;;;18.90;99.90;;;;;;5939249;24;20041;-92
2021/09/25 11:09:38;;;;;;;10.27;6.38;;;18.80;99.90;;;;;;5916823;24;20085;-92
2021/09/25 11:12:15;;;;;;;10.02;6.00;;;18.90;99.90;;;;;;5940858;24;20013;-92
2021/09/25 11:14:56;;;;;;;7.30;4.82;;;19.00;99.90;;;;;;5917779;24;20013;-92
2021/09/25 11:17:27;;;;;;;13.40;6.70;;;19.10;99.90;;;;;;5940685;24;20020;-93
2021/09/25 11:19:56;;;;;;;8.82;5.13;;;19.10;99.90;;;;;;5941051;24;20033;-93
2021/09/25 11:22:25;;;;;;;10.73;5.72;;;19.10;99.90;;;;;;5940731;24;20013;-92
2021/09/25 11:25:28;;;;;;;7.03;5.60;;;19.10;99.90;;;;;;5999083;23;20147;-94
2021/09/25 11:28:04;;;;;;;10.55;7.32;;;19.30;99.90;;;;;;6001572;23;20300;-93
2021/09/25 11:30:32;;;;;;;11.32;6.30;;;18.90;99.90;;;;;;6025646;23;20031;-93
2021/09/25 11:33:00;;;;;;;9.07;5.38;;;18.90;99.90;;;;;;6025191;23;20012;-92
2021/09/25 11:35:36;;;;;;;7.90;4.82;;;19.00;99.90;;;;;;6001837;23;20067;-92
2021/09/25 11:38:31;;;;;;;10.52;5.57;;;19.00;99.90;;;;;;6001892;23;20098;-91
2021/09/25 11:40:58;;;;;;;8.45;4.70;;;19.30;99.90;;;;;;6025233;23;20012;-92
2021/09/25 11:43:35;;;;;;;7.43;4.50;;;19.40;99.90;;;;;;6025143;23;20015;-93
2021/09/25 11:46:03;;;;;;;5.82;3.67;;;19.30;99.90;;;;;;5999702;23;20012;-92
2021/09/25 11:48:29;;;;;;;7.80;4.20;;;19.30;99.90;;;;;;6024395;23;20291;-91
2021/09/25 11:50:58;;;;;;;9.45;4.22;;;19.40;99.90;;;;;;6024303;23;20016;-91
2021/09/25 11:53:27;;;;;;;11.52;4.97;;;19.60;99.90;;;;;;5974841;23;20007;-92
2021/09/25 11:55:56;;;;;;;6.90;4.70;;;19.50;99.90;;;;;;6000883;23;20016;-94
2021/09/25 11:58:24;;;;;;;10.88;5.93;;;19.50;99.90;;;;;;6024497;23;20041;-95
2021/09/25 12:00:58;;;;;;;9.13;5.78;;;19.40;99.90;;;;;;6050439;23;20015;-93
2021/09/25 12:03:28;;;;;;;7.10;4.53;;;19.40;99.90;;;;;;6052650;23;20011;-94
2021/09/25 12:05:56;;;;;;;16.13;5.43;;;19.30;99.90;;;;;;6052671;23;20018;-93
2021/09/25 12:08:27;;;;;;;10.07;5.13;;;19.50;99.90;;;;;;6052297;23;20008;-92
2021/09/25 12:10:57;;;;;;;11.52;5.20;;;19.60;99.90;;;;;;6076694;23;20455;-92
2021/09/25 12:13:25;;;;;;;9.00;4.22;;;19.70;99.90;;;;;;6076418;23;20023;-94
2021/09/25 12:15:55;;;;;;;7.50;4.22;;;19.80;99.90;;;;;;6043908;23;20454;-93
2021/09/25 12:18:27;;;;;;;7.90;4.40;;;19.90;99.90;;;;;;6075729;23;20039;-93
2021/09/25 12:21:17;;;;;;;14.82;5.68;;;19.80;99.90;;;;;;6052151;23;20007;-92
2021/09/25 12:23:52;;;;;;;16.50;5.07;;;20.10;99.90;;;;;;6031116;23;20078;-91
2021/09/25 12:26:26;;;;;;;8.90;5.63;;;20.00;99.90;;;;;;6071334;23;20043;-93
2021/09/25 12:28:54;;;;;;;8.77;5.70;;;19.90;99.90;;;;;;6051466;23;20049;-95
2021/09/25 12:31:33;;;;;;;5.90;4.18;;;19.90;99.90;;;;;;6052117;23;20011;-92
2021/09/25 12:34:05;;;;;;;6.70;4.80;;;19.90;99.90;;;;;;6076239;23;20013;-91
2021/09/25 12:36:38;;;;;;;8.15;3.58;;;19.90;99.90;;;;;;6076802;23;20017;-91
2021/09/25 12:39:10;;;;;;;5.95;3.63;;;19.90;99.90;;;;;;6052556;23;20015;-90
2021/09/25 12:41:39;;;;;;;5.32;3.42;;;19.90;99.90;;;;;;6076582;23;20085;-90
2021/09/25 12:44:09;;;;;;;8.40;4.68;;;20.10;99.90;;;;;;6052424;23;20018;-90
2021/09/25 12:46:56;;;;;;;8.38;4.70;;;20.10;99.90;;;;;;6052007;23;20062;-87
2021/09/25 12:49:26;;;;;;;6.45;4.00;;;20.20;99.90;;;;;;6051146;23;20075;-90
2021/09/25 12:51:54;;;;;;;9.50;5.78;;;20.10;99.90;;;;;;6051442;23;20007;-89
2021/09/25 12:54:26;;;;;;;10.52;5.60;;;19.80;99.90;;;;;;6051972;23;20094;-91
2021/09/25 12:57:01;;;;;;;5.72;3.70;;;19.60;99.90;;;;;;6051690;23;20003;-91
2021/09/25 12:59:36;;;;;;;8.98;4.72;;;19.80;99.90;;;;;;6047019;23;20015;-90
2021/09/25 13:02:08;;;;;;;6.13;3.70;;;19.70;99.90;;;;;;6023702;23;20059;-90
2021/09/25 13:04:40;;;;;;;9.18;4.90;;;19.90;99.90;;;;;;6023451;23;20008;-91
2021/09/25 13:07:05;;;;;;;8.77;5.07;;;19.90;99.90;;;;;;5999596;23;20015;-89
2021/09/25 13:09:48;;;;;;;12.35;5.13;;;19.90;99.90;;;;;;6023261;23;20015;-88
2021/09/25 13:12:23;;;;;;;6.45;3.70;;;20.10;99.90;;;;;;6000199;23;20008;-89
2021/09/25 13:15:14;;;;;;;6.38;3.83;;;20.20;99.90;;;;;;5999795;23;20020;-89
2021/09/25 13:17:44;;;;;;;7.85;4.68;;;20.30;99.90;;;;;;6023629;23;20007;-91
2021/09/25 13:20:13;;;;;;;7.72;3.85;;;20.10;99.90;;;;;;6000168;23;20008;-90
2021/09/25 13:22:41;;;;;;;8.73;3.47;;;20.10;99.90;;;;;;6000643;23;20046;-91
2021/09/25 13:25:08;;;;;;;9.40;4.38;;;20.20;99.90;;;;;;6000231;23;20008;-90
2021/09/25 13:27:34;;;;;;;8.75;5.28;;;20.10;99.90;;;;;;6023547;23;20012;-90
2021/09/25 13:30:00;;;;;;;7.88;4.95;;;20.00;99.90;;;;;;6023799;23;20562;-89
2021/09/25 13:32:27;;;;;;;9.55;4.60;;;20.00;99.90;;;;;;6023141;23;20010;-90
2021/09/25 13:34:52;;;;;;;8.90;5.55;;;20.10;99.90;;;;;;6023319;23;20041;-89
2021/09/25 13:37:18;;;;;;;6.85;4.30;;;19.90;99.90;;;;;;6023253;23;20012;-88
2021/09/25 13:39:46;;;;;;;6.10;4.30;;;20.00;99.90;;;;;;6023885;23;20016;-90
2021/09/25 13:42:12;;;;;;;6.35;3.78;;;20.10;99.90;;;;;;6000357;23;20012;-90
2021/09/25 13:44:38;;;;;;;6.47;3.90;;;20.20;99.90;;;;;;6023393;23;20045;-89
2021/09/25 13:47:05;;;;;;;7.80;4.20;;;20.20;99.90;;;;;;6063336;23;20335;-90
2021/09/25 13:49:32;;;;;;;6.22;4.00;;;20.10;99.90;;;;;;6051388;23;20106;-90
2021/09/25 13:51:58;;;;;;;7.55;5.13;;;20.10;99.90;;;;;;6028643;23;20039;-89
2021/09/25 13:54:25;;;;;;;8.43;5.15;;;20.00;99.90;;;;;;6052256;23;20511;-89